createdAt,value
2024-02-24T00:00:35.657Z,91.48
2024-02-24T00:03:03.212Z,91.49
2024-02-24T00:05:30.965Z,91.58
2024-02-24T00:07:58.940Z,91.81
2024-02-24T00:10:26.615Z,91.65
2024-02-24T00:12:54.167Z,91.64
2024-02-24T00:15:21.722Z,91.51
2024-02-24T00:17:49.433Z,91.65
2024-02-24T00:20:17.093Z,91.70
2024-02-24T00:22:44.704Z,91.59
2024-02-24T00:25:12.263Z,91.69
2024-02-24T00:27:39.828Z,91.70
2024-02-24T00:30:07.510Z,91.46
2024-02-24T00:32:35.643Z,91.51
2024-02-24T00:35:03.587Z,91.65
2024-02-24T00:37:31.289Z,91.57
2024-02-24T00:39:58.859Z,91.67
2024-02-24T00:42:26.619Z,91.54
2024-02-24T00:44:54.404Z,91.43
2024-02-24T00:47:21.984Z,91.46
2024-02-24T00:49:49.695Z,91.50
2024-02-24T00:52:17.358Z,91.46
2024-02-24T00:54:44.928Z,91.61
2024-02-24T00:57:12.784Z,91.75
2024-02-24T00:59:40.489Z,91.67
2024-02-24T01:02:08.254Z,91.76
2024-02-24T01:04:35.990Z,91.61
2024-02-24T01:07:03.777Z,91.82
2024-02-24T01:09:31.504Z,92.01
2024-02-24T01:11:59.305Z,92.03
2024-02-24T01:14:26.982Z,91.99
2024-02-24T01:16:54.692Z,92.07
2024-02-24T01:19:22.420Z,92.15
2024-02-24T01:21:50.118Z,92.37
2024-02-24T01:24:18.105Z,92.13
2024-02-24T01:26:45.770Z,92.26
2024-02-24T01:29:13.455Z,92.32
2024-02-24T01:31:41.068Z,92.32
2024-02-24T01:34:08.823Z,92.31
2024-02-24T01:36:36.487Z,92.18
2024-02-24T01:39:04.073Z,92.37
2024-02-24T01:41:31.868Z,92.15
2024-02-24T01:43:59.585Z,92.23
2024-02-24T01:46:27.246Z,92.23
2024-02-24T01:48:55.274Z,92.24
2024-02-24T01:51:22.980Z,92.35
2024-02-24T01:53:50.664Z,92.37
2024-02-24T01:56:18.218Z,92.25
2024-02-24T01:58:45.921Z,92.40
2024-02-24T02:01:13.551Z,92.36
2024-02-24T02:03:41.402Z,92.44
2024-02-24T02:06:09.120Z,92.51
2024-02-24T02:08:36.808Z,92.43
2024-02-24T02:11:04.730Z,92.40
2024-02-24T02:13:33.665Z,92.37
2024-02-24T02:16:01.340Z,92.33
2024-02-24T02:18:31.776Z,92.50
2024-02-24T02:21:01.053Z,92.41
2024-02-24T02:23:28.632Z,92.55
2024-02-24T02:25:56.389Z,92.64
2024-02-24T02:28:24.046Z,92.54
2024-02-24T02:30:51.677Z,92.51
2024-02-24T02:33:19.674Z,92.49
2024-02-24T02:35:47.586Z,92.52
2024-02-24T02:38:15.640Z,92.47
2024-02-24T02:40:43.272Z,92.54
2024-02-24T02:43:10.843Z,92.36
2024-02-24T02:45:38.915Z,92.37
2024-02-24T02:48:06.553Z,92.32
2024-02-24T02:50:34.372Z,92.32
2024-02-24T02:53:01.895Z,92.06
2024-02-24T02:55:29.564Z,92.25
2024-02-24T02:57:57.120Z,92.31
2024-02-24T03:00:24.686Z,92.23
2024-02-24T03:02:52.697Z,92.18
2024-02-24T03:05:20.350Z,92.13
2024-02-24T03:07:48.069Z,92.08
2024-02-24T03:10:15.658Z,92.00
2024-02-24T03:12:43.393Z,91.90
2024-02-24T03:15:10.962Z,91.55
2024-02-24T03:17:38.647Z,90.76
2024-02-24T03:20:06.424Z,90.50
2024-02-24T03:22:34.040Z,90.23
2024-02-24T03:25:01.700Z,90.16
2024-02-24T03:27:29.352Z,89.89
2024-02-24T03:29:57.332Z,89.65
2024-02-24T03:32:25.039Z,89.33
2024-02-24T03:34:52.852Z,89.30
2024-02-24T03:37:20.413Z,88.83
2024-02-24T03:39:48.176Z,88.34
2024-02-24T03:42:15.750Z,88.02
2024-02-24T03:44:43.423Z,87.78
2024-02-24T03:47:11.123Z,87.41
2024-02-24T03:49:38.992Z,86.65
2024-02-24T03:52:06.795Z,86.35
2024-02-24T03:54:34.654Z,86.23
2024-02-24T03:57:02.220Z,85.72
2024-02-24T03:59:29.867Z,85.59
2024-02-24T04:01:57.641Z,85.37
2024-02-24T04:04:25.246Z,85.20
2024-02-24T04:06:52.848Z,85.11
2024-02-24T04:09:20.542Z,85.49
2024-02-24T04:11:48.258Z,85.57
2024-02-24T04:14:16.073Z,86.06
2024-02-24T04:16:43.726Z,86.39
2024-02-24T04:19:11.801Z,86.55
2024-02-24T04:21:39.648Z,87.17
2024-02-24T04:24:07.216Z,88.10
2024-02-24T04:26:34.933Z,88.88
2024-02-24T04:29:02.535Z,89.23
2024-02-24T04:31:30.194Z,87.91
2024-02-24T04:33:57.935Z,87.45
2024-02-24T04:36:25.734Z,87.89
2024-02-24T04:38:53.330Z,88.27
2024-02-24T04:41:21.072Z,88.43
2024-02-24T04:43:49.323Z,88.88
2024-02-24T04:46:16.887Z,88.91
2024-02-24T04:48:44.609Z,88.89
2024-02-24T04:51:12.319Z,88.98
2024-02-24T04:53:40.028Z,88.95
2024-02-24T04:56:07.800Z,88.95
2024-02-24T04:58:35.605Z,89.09
2024-02-24T05:01:03.238Z,89.18
2024-02-24T05:03:31.019Z,89.15
2024-02-24T05:05:58.818Z,89.36
2024-02-24T05:08:27.053Z,89.48
2024-02-24T05:10:54.836Z,89.92
2024-02-24T05:13:22.384Z,89.84
2024-02-24T05:15:50.048Z,89.77
2024-02-24T05:18:17.771Z,90.00
2024-02-24T05:20:45.527Z,90.22
2024-02-24T05:23:13.189Z,90.39
2024-02-24T05:25:40.894Z,90.69
2024-02-24T05:28:08.454Z,90.96
2024-02-24T05:30:36.128Z,91.26
2024-02-24T05:33:04.173Z,91.50
2024-02-24T05:35:31.970Z,91.57
2024-02-24T05:37:59.522Z,91.72
2024-02-24T05:40:27.186Z,91.86
2024-02-24T05:42:54.834Z,91.64
2024-02-24T05:45:22.403Z,91.16
2024-02-24T05:47:50.240Z,91.28
2024-02-24T05:50:18.107Z,91.47
2024-02-24T05:52:45.795Z,90.74
2024-02-24T05:55:13.350Z,90.53
2024-02-24T05:57:41.325Z,90.29
2024-02-24T06:00:08.988Z,90.31
2024-02-24T06:02:36.583Z,90.32
2024-02-24T06:05:04.304Z,90.42
2024-02-24T06:07:31.862Z,90.58
2024-02-24T06:09:59.532Z,90.43
2024-02-24T06:12:27.254Z,90.76
2024-02-24T06:14:54.991Z,90.50
2024-02-24T06:17:22.686Z,90.46
2024-02-24T06:19:50.379Z,90.08
2024-02-24T06:22:18.045Z,90.24
2024-02-24T06:24:46.045Z,90.07
2024-02-24T06:27:13.671Z,90.09
2024-02-24T06:29:41.286Z,90.03
2024-02-24T06:32:09.014Z,89.59
2024-02-24T06:34:36.598Z,90.08
2024-02-24T06:37:04.215Z,90.13
2024-02-24T06:39:31.879Z,90.12
2024-02-24T06:41:59.570Z,90.02
2024-02-24T06:44:27.434Z,89.77
2024-02-24T06:46:55.531Z,89.75
2024-02-24T06:49:23.928Z,89.68
2024-02-24T06:51:51.617Z,89.19
2024-02-24T06:54:19.273Z,89.09
2024-02-24T06:56:46.944Z,88.72
2024-02-24T06:59:14.623Z,88.79
2024-02-24T07:01:42.281Z,88.35
2024-02-24T07:04:09.820Z,88.41
2024-02-24T07:06:37.496Z,87.80
2024-02-24T07:09:05.039Z,87.82
2024-02-24T07:11:32.831Z,87.46
2024-02-24T07:14:00.486Z,87.02
2024-02-24T07:16:28.433Z,86.85
2024-02-24T07:18:56.126Z,86.26
2024-02-24T07:21:23.877Z,85.58
2024-02-24T07:23:51.560Z,85.12
2024-02-24T07:26:19.411Z,84.61
2024-02-24T07:28:46.950Z,83.93
2024-02-24T07:31:14.399Z,82.63
2024-02-24T07:33:42.055Z,81.30
2024-02-24T07:36:09.834Z,80.80
2024-02-24T07:38:37.579Z,79.44
2024-02-24T07:41:05.254Z,77.61
2024-02-24T07:43:33.441Z,73.70
2024-02-24T07:46:01.103Z,71.79
2024-02-24T07:48:28.792Z,67.20
2024-02-24T07:50:56.463Z,63.87
2024-02-24T07:53:24.207Z,57.24
2024-02-24T07:55:51.842Z,56.23
2024-02-24T07:58:19.396Z,53.37
2024-02-24T08:00:51.825Z,52.83
2024-02-24T08:03:21.568Z,50.96
2024-02-24T08:05:49.456Z,49.27
2024-02-24T08:08:17.543Z,46.72
2024-02-24T08:10:45.090Z,47.34
2024-02-24T08:13:12.745Z,47.08
2024-02-24T08:15:40.307Z,46.90
2024-02-24T08:18:07.938Z,45.21
2024-02-24T08:20:36.821Z,46.92
2024-02-24T08:23:04.626Z,44.87
2024-02-24T08:25:32.399Z,43.64
2024-02-24T08:27:59.974Z,44.91
2024-02-24T08:30:27.744Z,46.49
2024-02-24T08:32:55.782Z,44.56
2024-02-24T08:35:23.606Z,43.87
2024-02-24T08:37:51.406Z,42.67
2024-02-24T08:40:19.068Z,44.23
2024-02-24T08:42:46.735Z,43.01
2024-02-24T08:45:14.291Z,45.37
2024-02-24T08:47:41.963Z,44.93
2024-02-24T08:50:09.915Z,41.10
2024-02-24T08:52:46.217Z,40.58
2024-02-24T08:55:18.778Z,37.98
2024-02-24T08:57:46.424Z,38.51
2024-02-24T09:00:13.989Z,37.07
2024-02-24T09:02:41.686Z,34.65
2024-02-24T09:05:09.376Z,32.11
2024-02-24T09:07:37.108Z,32.10
2024-02-24T09:10:06.448Z,30.30
2024-02-24T09:12:35.666Z,32.58
2024-02-24T09:15:03.329Z,33.52
2024-02-24T09:17:31.060Z,33.27
2024-02-24T09:19:58.862Z,35.10
2024-02-24T09:22:26.724Z,36.77
2024-02-24T09:24:54.421Z,38.57
2024-02-24T09:27:21.950Z,40.51
2024-02-24T09:29:50.015Z,42.13
2024-02-24T09:32:17.700Z,44.09
2024-02-24T09:34:45.552Z,46.35
2024-02-24T09:37:13.327Z,46.54
2024-02-24T09:39:40.969Z,45.49
2024-02-24T09:42:08.534Z,43.44
2024-02-24T09:44:36.251Z,42.04
2024-02-24T09:47:04.257Z,40.47
2024-02-24T09:49:31.989Z,39.05
2024-02-24T09:51:59.822Z,34.59
2024-02-24T09:54:27.449Z,34.41
2024-02-24T09:56:55.139Z,32.04
2024-02-24T09:59:23.031Z,28.50
2024-02-24T10:01:50.750Z,26.98
2024-02-24T10:04:18.426Z,25.39
2024-02-24T10:06:46.140Z,25.61
2024-02-24T10:09:13.948Z,26.82
2024-02-24T10:11:42.186Z,24.27
2024-02-24T10:14:10.084Z,23.86
2024-02-24T10:16:37.634Z,22.63
2024-02-24T10:19:05.450Z,20.44
2024-02-24T10:21:33.160Z,21.21
2024-02-24T10:24:00.877Z,21.44
2024-02-24T10:26:28.759Z,22.62
2024-02-24T10:28:56.594Z,24.04
2024-02-24T10:31:24.108Z,25.50
2024-02-24T10:33:51.889Z,27.34
2024-02-24T10:36:20.161Z,29.06
2024-02-24T10:38:50.889Z,27.76
2024-02-24T10:41:24.918Z,28.95
2024-02-24T10:44:02.417Z,27.09
2024-02-24T10:46:37.950Z,24.96
2024-02-24T10:49:05.735Z,23.80
2024-02-24T10:51:35.665Z,22.20
2024-02-24T10:54:04.251Z,20.19
2024-02-24T10:56:31.901Z,19.63
2024-02-24T10:58:59.933Z,17.85
2024-02-24T11:01:27.579Z,16.45
2024-02-24T11:03:55.304Z,17.16
2024-02-24T11:06:22.998Z,16.69
2024-02-24T11:08:50.928Z,16.73
2024-02-24T11:11:18.805Z,15.43
2024-02-24T11:13:55.930Z,16.11
2024-02-24T11:16:32.004Z,18.53
2024-02-24T11:18:59.762Z,18.59
2024-02-24T11:21:27.513Z,18.94
2024-02-24T11:23:55.517Z,19.27
2024-02-24T11:26:23.728Z,19.45
2024-02-24T11:28:51.428Z,19.02
2024-02-24T11:31:19.102Z,18.63
2024-02-24T11:33:46.725Z,18.06
2024-02-24T11:36:14.630Z,17.53
2024-02-24T11:38:42.321Z,18.24
2024-02-24T11:41:10.039Z,19.50
2024-02-24T11:43:37.812Z,20.91
2024-02-24T11:46:05.489Z,21.31
2024-02-24T11:48:33.678Z,22.53
2024-02-24T11:51:01.654Z,22.34
2024-02-24T11:53:29.389Z,20.98
2024-02-24T11:55:57.050Z,20.44
2024-02-24T11:58:24.697Z,19.48
2024-02-24T12:00:52.378Z,18.49
2024-02-24T12:03:21.543Z,18.51
2024-02-24T12:05:50.139Z,18.65
2024-02-24T12:08:17.931Z,18.27
2024-02-24T12:10:45.600Z,17.85
2024-02-24T12:13:13.667Z,17.30
2024-02-24T12:15:41.300Z,17.49
2024-02-24T12:18:09.168Z,17.98
2024-02-24T12:20:36.965Z,17.89
2024-02-24T12:23:04.588Z,17.85
2024-02-24T12:25:32.153Z,18.18
2024-02-24T12:28:00.016Z,18.79
2024-02-24T12:30:27.578Z,19.01
2024-02-24T12:32:55.396Z,19.49
2024-02-24T12:35:23.219Z,18.69
2024-02-24T12:37:51.172Z,18.50
2024-02-24T12:40:18.733Z,18.76
2024-02-24T12:42:46.293Z,18.87
2024-02-24T12:45:14.056Z,20.71
2024-02-24T12:47:41.824Z,22.52
2024-02-24T12:50:09.525Z,23.44
2024-02-24T12:52:37.372Z,24.22
2024-02-24T12:55:05.016Z,25.73
2024-02-24T12:57:32.568Z,27.23
2024-02-24T13:00:00.372Z,28.60
2024-02-24T13:02:28.555Z,28.65
2024-02-24T13:04:56.176Z,28.00
2024-02-24T13:07:23.829Z,27.05
2024-02-24T13:09:51.490Z,27.45
2024-02-24T13:12:19.147Z,27.16
2024-02-24T13:14:46.972Z,27.28
2024-02-24T13:17:14.619Z,26.31
2024-02-24T13:19:42.351Z,26.75
2024-02-24T13:22:10.027Z,26.21
2024-02-24T13:24:37.671Z,25.49
2024-02-24T13:27:05.330Z,25.68
2024-02-24T13:29:33.332Z,26.19
2024-02-24T13:32:01.053Z,26.38
2024-02-24T13:34:28.856Z,26.49
2024-02-24T13:36:56.704Z,27.60
2024-02-24T13:39:24.361Z,28.44
2024-02-24T13:41:51.993Z,28.52
2024-02-24T13:44:19.703Z,28.90
2024-02-24T13:46:47.227Z,29.43
2024-02-24T13:49:15.026Z,29.92
2024-02-24T13:51:43.189Z,30.48
2024-02-24T13:54:10.936Z,30.76
2024-02-24T13:56:38.669Z,31.61
2024-02-24T13:59:06.474Z,31.26
2024-02-24T14:01:34.120Z,31.36
2024-02-24T14:04:01.739Z,31.49
2024-02-24T14:06:29.690Z,31.60
2024-02-24T14:08:57.669Z,31.85
2024-02-24T14:11:25.845Z,32.26
2024-02-24T14:13:53.663Z,32.42
2024-02-24T14:16:21.322Z,32.62
2024-02-24T14:18:49.432Z,33.13
2024-02-24T14:21:17.296Z,33.09
2024-02-24T14:23:44.979Z,33.17
2024-02-24T14:26:12.687Z,33.67
2024-02-24T14:28:40.345Z,34.58
2024-02-24T14:31:08.001Z,35.43
2024-02-24T14:33:35.787Z,35.83
2024-02-24T14:36:03.972Z,36.75
2024-02-24T14:38:31.849Z,37.64
2024-02-24T14:40:59.482Z,38.44
2024-02-24T14:43:27.135Z,39.15
2024-02-24T14:45:55.109Z,39.63
2024-02-24T14:48:22.980Z,40.31
2024-02-24T14:50:50.769Z,40.92
2024-02-24T14:53:18.527Z,40.97
2024-02-24T14:55:46.279Z,41.41
2024-02-24T14:58:13.844Z,42.01
2024-02-24T15:00:41.552Z,42.15
2024-02-24T15:03:10.942Z,42.20
2024-02-24T15:05:39.560Z,42.58
2024-02-24T15:08:07.338Z,42.54
2024-02-24T15:10:35.314Z,42.74
2024-02-24T15:13:04.200Z,43.12
2024-02-24T15:15:31.857Z,43.30
2024-02-24T15:17:59.649Z,43.38
2024-02-24T15:20:27.642Z,43.23
2024-02-24T15:22:55.461Z,42.94
2024-02-24T15:25:23.012Z,42.89
2024-02-24T15:27:50.669Z,42.69
2024-02-24T15:30:18.352Z,42.95
2024-02-24T15:32:45.992Z,43.35
2024-02-24T15:35:14.149Z,44.57
2024-02-24T15:37:42.043Z,45.37
2024-02-24T15:40:09.706Z,45.95
2024-02-24T15:42:37.260Z,46.37
2024-02-24T15:45:05.073Z,46.94
2024-02-24T15:47:32.776Z,47.39
2024-02-24T15:50:00.575Z,48.04
2024-02-24T15:52:28.317Z,48.99
2024-02-24T15:54:55.887Z,49.60
2024-02-24T15:57:23.551Z,50.09
2024-02-24T15:59:51.549Z,50.61
2024-02-24T16:02:19.307Z,51.49
2024-02-24T16:04:46.998Z,52.05
2024-02-24T16:07:14.979Z,52.70
2024-02-24T16:09:42.765Z,53.22
2024-02-24T16:12:10.480Z,53.74
2024-02-24T16:14:38.145Z,54.39
2024-02-24T16:17:06.066Z,54.88
2024-02-24T16:19:33.789Z,55.15
2024-02-24T16:22:01.593Z,55.68
2024-02-24T16:24:31.124Z,56.08
2024-02-24T16:26:59.588Z,56.38
2024-02-24T16:29:27.598Z,57.12
2024-02-24T16:31:55.298Z,57.60
2024-02-24T16:34:23.161Z,58.00
2024-02-24T16:36:50.837Z,58.60
2024-02-24T16:39:18.498Z,59.06
2024-02-24T16:41:46.061Z,59.63
2024-02-24T16:44:13.947Z,59.82
2024-02-24T16:46:41.591Z,60.61
2024-02-24T16:49:09.464Z,60.82
2024-02-24T16:51:37.626Z,61.42
2024-02-24T16:54:05.324Z,61.86
2024-02-24T16:56:32.989Z,62.13
2024-02-24T16:59:00.999Z,62.82
2024-02-24T17:01:28.752Z,63.30
2024-02-24T17:03:56.521Z,63.72
2024-02-24T17:06:24.558Z,63.95
2024-02-24T17:08:52.457Z,64.59
2024-02-24T17:11:20.373Z,64.76
2024-02-24T17:13:48.212Z,64.92
2024-02-24T17:16:15.884Z,65.18
2024-02-24T17:18:43.963Z,65.20
2024-02-24T17:21:11.761Z,65.46
2024-02-24T17:23:39.702Z,65.42
2024-02-24T17:26:07.448Z,65.43
2024-02-24T17:28:35.207Z,65.62
2024-02-24T17:31:02.878Z,65.61
2024-02-24T17:33:30.640Z,65.80
2024-02-24T17:35:58.349Z,66.11
2024-02-24T17:38:26.063Z,66.11
2024-02-24T17:40:53.613Z,66.18
2024-02-24T17:43:21.173Z,66.32
2024-02-24T17:45:49.054Z,66.37
2024-02-24T17:48:17.021Z,66.31
2024-02-24T17:50:44.723Z,66.31
2024-02-24T17:53:12.542Z,66.39
2024-02-24T17:55:40.217Z,66.45
2024-02-24T17:58:07.757Z,66.53
2024-02-24T18:00:35.539Z,66.81
2024-02-24T18:03:03.232Z,67.19
2024-02-24T18:05:30.920Z,67.53
2024-02-24T18:07:58.724Z,67.54
2024-02-24T18:10:26.581Z,67.86
2024-02-24T18:12:54.296Z,67.85
2024-02-24T18:15:21.913Z,68.07
2024-02-24T18:17:49.672Z,68.21
2024-02-24T18:20:17.352Z,68.46
2024-02-24T18:22:45.634Z,68.58
2024-02-24T18:25:13.648Z,68.64
2024-02-24T18:27:41.242Z,68.54
2024-02-24T18:30:09.119Z,68.74
2024-02-24T18:32:37.018Z,68.90
2024-02-24T18:35:05.138Z,69.07
2024-02-24T18:37:32.804Z,68.82
2024-02-24T18:40:00.483Z,68.80
2024-02-24T18:42:28.139Z,68.86
2024-02-24T18:44:55.923Z,69.00
2024-02-24T18:47:23.920Z,69.02
2024-02-24T18:49:51.863Z,69.26
2024-02-24T18:52:19.505Z,69.30
2024-02-24T18:54:47.244Z,69.60
2024-02-24T18:57:15.030Z,70.06
2024-02-24T18:59:43.637Z,70.40
2024-02-24T19:02:11.577Z,70.32
2024-02-24T19:04:39.372Z,70.69
2024-02-24T19:07:07.100Z,70.82
2024-02-24T19:09:34.769Z,70.95
2024-02-24T19:12:02.429Z,71.10
2024-02-24T19:14:30.448Z,71.21
2024-02-24T19:16:58.217Z,71.52
2024-02-24T19:19:26.016Z,71.58
2024-02-24T19:21:53.680Z,71.76
2024-02-24T19:24:21.354Z,72.17
2024-02-24T19:26:49.336Z,72.37
2024-02-24T19:29:16.903Z,72.52
2024-02-24T19:31:44.434Z,72.68
2024-02-24T19:34:12.144Z,72.73
2024-02-24T19:36:39.977Z,72.85
2024-02-24T19:39:15.706Z,73.01
2024-02-24T19:41:46.749Z,73.30
2024-02-24T19:44:14.525Z,73.32
2024-02-24T19:46:42.181Z,73.44
2024-02-24T19:49:10.502Z,73.31
2024-02-24T19:51:38.421Z,73.76
2024-02-24T19:54:06.464Z,74.02
2024-02-24T19:56:34.273Z,74.61
2024-02-24T19:59:01.824Z,74.39
2024-02-24T20:01:29.482Z,74.58
2024-02-24T20:03:57.059Z,75.11
2024-02-24T20:06:24.883Z,75.74
2024-02-24T20:08:52.763Z,76.32
2024-02-24T20:11:20.760Z,76.67
2024-02-24T20:13:48.508Z,77.15
2024-02-24T20:16:16.475Z,77.08
2024-02-24T20:18:44.362Z,77.32
2024-02-24T20:21:12.299Z,77.56
2024-02-24T20:23:40.051Z,77.60
2024-02-24T20:26:07.763Z,77.55
2024-02-24T20:28:35.389Z,77.43
2024-02-24T20:31:02.961Z,77.62
2024-02-24T20:33:30.643Z,77.84
2024-02-24T20:35:58.468Z,77.65
2024-02-24T20:38:26.292Z,77.52
2024-02-24T20:40:54.009Z,77.54
2024-02-24T20:43:21.989Z,77.83
2024-02-24T20:45:49.531Z,77.96
2024-02-24T20:48:17.315Z,77.78
2024-02-24T20:50:45.230Z,78.00
2024-02-24T20:53:13.028Z,78.09
2024-02-24T20:55:40.590Z,77.98
2024-02-24T20:58:08.255Z,78.12
2024-02-24T21:00:35.860Z,78.14
2024-02-24T21:03:03.738Z,78.26
2024-02-24T21:05:31.676Z,78.25
2024-02-24T21:07:59.924Z,78.09
2024-02-24T21:10:27.513Z,78.04
2024-02-24T21:12:55.148Z,77.95
2024-02-24T21:15:22.706Z,77.86
2024-02-24T21:17:50.742Z,78.07
2024-02-24T21:20:18.642Z,78.08
2024-02-24T21:22:46.313Z,77.87
2024-02-24T21:25:14.070Z,78.03
2024-02-24T21:27:41.625Z,78.20
2024-02-24T21:30:09.339Z,78.02
2024-02-24T21:32:37.579Z,77.95
2024-02-24T21:35:05.364Z,77.92
2024-02-24T21:37:33.095Z,77.87
2024-02-24T21:40:00.647Z,78.11
2024-02-24T21:42:28.305Z,78.07
2024-02-24T21:44:55.922Z,78.08
2024-02-24T21:47:23.605Z,77.85
2024-02-24T21:49:51.397Z,77.78
2024-02-24T21:52:18.959Z,77.54
2024-02-24T21:54:46.619Z,77.63
2024-02-24T21:57:14.514Z,77.43
2024-02-24T21:59:42.317Z,77.40
2024-02-24T22:02:09.909Z,77.28
2024-02-24T22:04:37.461Z,77.30
2024-02-24T22:07:05.229Z,77.21
2024-02-24T22:09:32.894Z,77.32
2024-02-24T22:12:00.605Z,77.41
2024-02-24T22:14:28.332Z,77.25
2024-02-24T22:16:55.989Z,77.27
2024-02-24T22:19:23.715Z,77.32
2024-02-24T22:21:51.708Z,77.38
2024-02-24T22:24:20.816Z,77.45
2024-02-24T22:26:48.647Z,77.45
2024-02-24T22:29:16.446Z,77.46
2024-02-24T22:31:44.106Z,77.40
2024-02-24T22:34:11.907Z,77.34
2024-02-24T22:36:39.640Z,77.33
2024-02-24T22:39:07.466Z,77.35
2024-02-24T22:41:35.388Z,77.40
2024-02-24T22:44:02.944Z,77.39
2024-02-24T22:46:30.589Z,77.23
2024-02-24T22:48:58.598Z,77.30
2024-02-24T22:51:26.425Z,77.32
2024-02-24T22:53:54.034Z,77.36
2024-02-24T22:56:21.775Z,77.42
2024-02-24T22:58:49.422Z,77.35
2024-02-24T23:01:17.047Z,77.53
2024-02-24T23:03:44.663Z,77.50
2024-02-24T23:06:12.616Z,77.62
2024-02-24T23:08:40.643Z,77.49
2024-02-24T23:11:08.377Z,77.53
2024-02-24T23:13:36.416Z,77.50
2024-02-24T23:16:04.054Z,77.55
2024-02-24T23:18:31.952Z,77.56
2024-02-24T23:20:59.792Z,77.80
2024-02-24T23:23:27.473Z,77.79
2024-02-24T23:25:55.220Z,77.83
2024-02-24T23:28:22.883Z,77.84
2024-02-24T23:30:50.435Z,77.91
2024-02-24T23:33:18.156Z,77.95
2024-02-24T23:35:45.886Z,78.19
2024-02-24T23:38:13.919Z,78.17
2024-02-24T23:40:41.590Z,78.19
2024-02-24T23:43:09.254Z,78.32
2024-02-24T23:45:36.820Z,78.23
2024-02-24T23:48:04.639Z,78.21
2024-02-24T23:50:32.389Z,78.15
2024-02-24T23:53:00.010Z,77.96
2024-02-24T23:55:27.558Z,77.91
2024-02-24T23:57:55.121Z,77.86
